Time;durP1;ratioP1;P1;durP2;ratioP2;P2;SDS_P1;SDS_P2;PMS_P1;PMS_P2;Temp;Humidity;BMP_temperature;BMP_pressure;BME280_temperature;BME280_humidity;BME280_pressure;Samples;Min_cycle;Max_cycle;Signal;HPM_P1;HPM_P2
2022/09/30 00:01:15;;;;;;;27.30;22.90;;;8.10;99.90;;;;;;4991165;28;20427;-77
2022/09/30 00:03:40;;;;;;;28.17;22.93;;;8.10;99.90;;;;;;4990851;28;20114;-77
2022/09/30 00:06:06;;;;;;;28.37;23.27;;;8.10;99.90;;;;;;4991138;28;20026;-77
2022/09/30 00:08:32;;;;;;;29.83;23.80;;;8.10;99.90;;;;;;4990673;28;20077;-77
2022/09/30 00:11:13;;;;;;;29.23;24.50;;;8.10;99.90;;;;;;4990986;28;20361;-77
2022/09/30 00:13:39;;;;;;;29.33;23.83;;;8.10;99.90;;;;;;4990887;28;20030;-77
2022/09/30 00:16:05;;;;;;;31.90;23.10;;;8.10;99.90;;;;;;4990802;28;20494;-77
2022/09/30 00:18:32;;;;;;;28.43;24.47;;;8.10;99.90;;;;;;4990608;28;20072;-77
2022/09/30 00:20:58;;;;;;;29.60;23.47;;;8.10;99.90;;;;;;4990936;28;20023;-77
2022/09/30 00:23:24;;;;;;;32.60;24.50;;;8.10;99.90;;;;;;4990707;28;20034;-76
2022/09/30 00:25:55;;;;;;;30.13;23.73;;;8.10;99.90;;;;;;4991047;28;20133;-77
2022/09/30 00:28:21;;;;;;;30.33;23.30;;;8.10;99.90;;;;;;4990548;28;20073;-76
2022/09/30 00:30:47;;;;;;;30.93;24.63;;;8.10;99.90;;;;;;4990862;28;20069;-77
2022/09/30 00:33:12;;;;;;;30.60;23.80;;;8.10;99.90;;;;;;4983171;28;20114;-76
2022/09/30 00:35:38;;;;;;;26.77;22.37;;;8.10;99.90;;;;;;4971379;28;20042;-76
2022/09/30 00:38:03;;;;;;;29.97;24.03;;;8.00;99.90;;;;;;4970970;28;20031;-76
2022/09/30 00:40:30;;;;;;;29.43;23.27;;;8.00;99.90;;;;;;4971103;28;20034;-76
2022/09/30 00:42:57;;;;;;;30.20;24.20;;;8.00;99.90;;;;;;4970658;28;20035;-76
2022/09/30 00:45:27;;;;;;;31.03;24.33;;;8.00;99.90;;;;;;4971045;28;20023;-76
2022/09/30 00:47:59;;;;;;;29.27;23.90;;;8.00;99.90;;;;;;4970863;28;20023;-76
2022/09/30 00:50:31;;;;;;;30.33;23.43;;;8.10;99.90;;;;;;4971223;28;20030;-76
2022/09/30 00:53:00;;;;;;;29.57;22.93;;;8.10;99.90;;;;;;4971360;28;20026;-76
2022/09/30 00:55:33;;;;;;;28.37;23.07;;;8.00;99.90;;;;;;4971187;28;20053;-76
2022/09/30 00:58:00;;;;;;;25.37;21.10;;;8.00;99.90;;;;;;4971069;28;20026;-76
2022/09/30 01:00:25;;;;;;;30.57;22.63;;;8.00;99.90;;;;;;4972278;28;20034;-76
2022/09/30 01:02:52;;;;;;;30.37;22.57;;;8.00;99.90;;;;;;4974287;28;20034;-77
2022/09/30 01:05:19;;;;;;;27.07;22.30;;;8.00;99.90;;;;;;4989551;28;20026;-76
2022/09/30 01:07:46;;;;;;;27.30;21.67;;;8.00;99.90;;;;;;4974225;28;20093;-77
2022/09/30 01:10:11;;;;;;;29.50;22.87;;;8.00;99.90;;;;;;4974344;28;20035;-76
2022/09/30 01:12:38;;;;;;;29.43;24.37;;;8.00;99.90;;;;;;4974358;28;20042;-76
2022/09/30 01:15:04;;;;;;;25.67;21.60;;;7.90;99.90;;;;;;4974217;28;20640;-76
2022/09/30 01:17:53;;;;;;;27.87;23.07;;;7.90;99.90;;;;;;4974168;28;20403;-76
2022/09/30 01:20:46;;;;;;;42.97;22.83;;;7.90;99.90;;;;;;4974509;28;20053;-77
2022/09/30 01:23:31;;;;;;;25.97;21.37;;;7.90;99.90;;;;;;4974166;28;20053;-76
2022/09/30 01:26:00;;;;;;;;;;;7.90;99.90;;;;;;4974560;28;20035;-76
2022/09/30 01:28:58;;;;;;;25.10;21.20;;;7.90;99.90;;;;;;4973912;28;19959;-76
2022/09/30 01:31:55;;;;;;;32.83;21.47;;;7.90;99.90;;;;;;4970830;28;20863;-77
2022/09/30 01:34:54;;;;;;;27.37;21.63;;;7.90;99.90;;;;;;4982512;28;20137;-77
2022/09/30 01:37:31;;;;;;;28.10;22.23;;;7.90;99.90;;;;;;4972778;28;20827;-76
2022/09/30 01:40:26;;;;;;;29.90;23.17;;;7.90;99.90;;;;;;4973934;28;20110;-76
2022/09/30 01:43:11;;;;;;;26.88;21.95;;;7.80;99.90;;;;;;4973704;28;20499;-77
2022/09/30 01:45:42;;;;;;;26.43;22.00;;;7.90;99.90;;;;;;4973808;28;20033;-76
2022/09/30 01:48:36;;;;;;;28.63;22.87;;;7.90;99.90;;;;;;4973571;28;20035;-77
2022/09/30 01:51:18;;;;;;;27.03;22.20;;;7.80;99.90;;;;;;4973791;28;20019;-77
2022/09/30 01:53:54;;;;;;;27.13;22.70;;;7.80;99.90;;;;;;4973709;28;20166;-77
2022/09/30 01:56:33;;;;;;;28.23;23.23;;;7.90;99.90;;;;;;4973658;28;20027;-77
2022/09/30 01:59:24;;;;;;;28.70;23.23;;;7.90;99.90;;;;;;4973472;28;20031;-77
2022/09/30 02:02:18;;;;;;;27.63;21.90;;;7.80;99.90;;;;;;4973699;28;20027;-76
2022/09/30 02:04:58;;;;;;;28.93;23.10;;;7.80;99.90;;;;;;4973504;28;20031;-76
2022/09/30 02:07:37;;;;;;;27.50;22.37;;;7.80;99.90;;;;;;4973182;28;20472;-76
2022/09/30 02:10:14;;;;;;;27.33;21.60;;;7.80;99.90;;;;;;4973180;28;20035;-76
2022/09/30 02:12:49;;;;;;;26.70;21.60;;;7.80;99.90;;;;;;4972511;28;20034;-76
2022/09/30 02:15:22;;;;;;;25.45;20.95;;;7.80;99.90;;;;;;4973249;28;20086;-77
2022/09/30 02:18:12;;;;;;;25.37;21.23;;;7.80;99.90;;;;;;4973128;28;20035;-76
2022/09/30 02:20:40;;;;;;;25.90;21.07;;;7.80;99.90;;;;;;4973168;28;20034;-77
2022/09/30 02:23:15;;;;;;;28.40;22.73;;;7.80;99.90;;;;;;4972896;28;20019;-77
2022/09/30 02:25:53;;;;;;;28.50;21.37;;;7.70;99.90;;;;;;4988008;28;20073;-77
2022/09/30 02:28:28;;;;;;;26.53;21.73;;;7.70;99.90;;;;;;4972899;28;20048;-77
2022/09/30 02:30:58;;;;;;;24.08;20.10;;;7.60;99.90;;;;;;4987826;28;20053;-76
2022/09/30 02:33:38;;;;;;;24.33;20.20;;;7.60;99.90;;;;;;4982378;28;20556;-76
2022/09/30 02:36:09;;;;;;;23.20;19.40;;;7.60;99.90;;;;;;4972750;28;20411;-76
2022/09/30 02:38:42;;;;;;;24.37;19.87;;;7.50;99.90;;;;;;4972756;28;20037;-76
2022/09/30 02:41:17;;;;;;;30.20;20.20;;;7.50;99.90;;;;;;4972696;28;20027;-76
2022/09/30 02:43:43;;;;;;;23.43;19.70;;;7.40;99.90;;;;;;4972396;28;20031;-77
2022/09/30 02:46:26;;;;;;;22.57;19.43;;;7.40;99.90;;;;;;4987195;28;20034;-76
2022/09/30 02:49:19;;;;;;;21.53;18.80;;;7.40;99.90;;;;;;4972429;28;20019;-76
2022/09/30 02:52:03;;;;;;;21.47;18.37;;;7.30;99.90;;;;;;4972485;28;20106;-76
2022/09/30 02:54:54;;;;;;;21.57;18.03;;;7.30;99.90;;;;;;4972100;28;20023;-76
2022/09/30 02:57:23;;;;;;;25.37;20.03;;;7.20;99.90;;;;;;4972633;28;20034;-76
2022/09/30 02:59:51;;;;;;;114.83;21.63;;;7.20;99.90;;;;;;4972433;28;20109;-76
2022/09/30 03:02:18;;;;;;;96.27;21.23;;;7.20;99.90;;;;;;4972264;28;20027;-76
2022/09/30 03:04:45;;;;;;;65.47;21.03;;;7.20;99.90;;;;;;4972325;28;20034;-76
2022/09/30 03:07:11;;;;;;;103.50;20.17;;;7.10;99.90;;;;;;4972588;28;20023;-76
2022/09/30 03:09:37;;;;;;;24.23;18.43;;;7.10;99.90;;;;;;4972334;28;20031;-76
2022/09/30 03:12:37;;;;;;;45.43;20.00;;;7.10;99.90;;;;;;4971947;28;20023;-76
2022/09/30 03:15:19;;;;;;;160.03;21.20;;;7.10;99.90;;;;;;4972157;28;20023;-76
2022/09/30 03:18:35;;;;;;;21.17;18.07;;;7.10;99.90;;;;;;4979781;28;20022;-76
2022/09/30 03:21:41;;;;;;;39.47;17.27;;;7.10;99.90;;;;;;5008198;28;20033;-76
2022/09/30 03:24:28;;;;;;;48.60;18.57;;;7.00;99.90;;;;;;5010559;28;20060;-76
2022/09/30 03:27:31;;;;;;;34.57;18.83;;;7.00;99.90;;;;;;5011023;28;20026;-76
2022/09/30 03:30:06;;;;;;;19.23;16.97;;;7.10;99.90;;;;;;5010882;28;20127;-76
2022/09/30 03:32:48;;;;;;;21.70;17.63;;;7.00;99.90;;;;;;4990222;28;20035;-76
2022/09/30 03:35:38;;;;;;;69.50;16.87;;;7.00;99.90;;;;;;4989576;28;20444;-76
2022/09/30 03:38:14;;;;;;;56.83;17.07;;;7.00;99.90;;;;;;4991250;28;20042;-76
2022/09/30 03:40:42;;;;;;;19.53;16.20;;;6.90;99.90;;;;;;4991232;28;20033;-76
2022/09/30 03:43:33;;;;;;;19.30;16.47;;;6.90;99.90;;;;;;4991262;28;20046;-76
2022/09/30 03:46:06;;;;;;;19.63;16.83;;;6.90;99.90;;;;;;4991134;28;20030;-76
2022/09/30 03:48:32;;;;;;;22.70;16.37;;;6.90;99.90;;;;;;4989825;28;20027;-76
2022/09/30 03:50:59;;;;;;;26.13;16.50;;;6.80;99.90;;;;;;4991209;28;20094;-77
2022/09/30 03:53:26;;;;;;;26.33;16.07;;;6.80;99.90;;;;;;4990973;28;20116;-76
2022/09/30 03:55:52;;;;;;;59.10;17.03;;;6.80;99.90;;;;;;4990742;28;20034;-76
2022/09/30 03:58:22;;;;;;;29.23;15.87;;;6.70;99.90;;;;;;4990999;28;20034;-76
2022/09/30 04:00:49;;;;;;;17.47;15.57;;;6.70;99.90;;;;;;4991345;28;20033;-77
2022/09/30 04:03:16;;;;;;;17.60;15.80;;;6.70;99.90;;;;;;4991093;28;20042;-76
2022/09/30 04:05:42;;;;;;;17.53;15.53;;;6.70;99.90;;;;;;4991138;28;20053;-76
2022/09/30 04:08:08;;;;;;;38.23;15.80;;;6.70;99.90;;;;;;4991213;28;20416;-76
2022/09/30 04:10:34;;;;;;;30.03;14.93;;;6.70;99.90;;;;;;4991284;28;20035;-76
2022/09/30 04:12:59;;;;;;;29.67;15.37;;;6.70;99.90;;;;;;4991287;28;20472;-76
2022/09/30 04:15:26;;;;;;;17.60;15.67;;;6.80;99.90;;;;;;4991140;28;20031;-76
2022/09/30 04:17:52;;;;;;;33.13;17.00;;;6.80;99.90;;;;;;4993472;28;20109;-77
2022/09/30 04:20:17;;;;;;;27.97;15.83;;;6.80;99.90;;;;;;4992034;28;20487;-77
2022/09/30 04:22:43;;;;;;;78.20;17.23;;;6.80;99.90;;;;;;4993186;28;20076;-77
2022/09/30 04:25:09;;;;;;;56.23;15.77;;;6.80;99.90;;;;;;4993263;28;20033;-77
2022/09/30 04:27:34;;;;;;;40.70;15.80;;;6.80;99.90;;;;;;4993285;28;20062;-77
2022/09/30 04:30:00;;;;;;;33.17;16.60;;;6.70;99.90;;;;;;4993156;28;20515;-77
2022/09/30 04:32:27;;;;;;;51.00;16.27;;;6.70;99.90;;;;;;4981467;28;20376;-77
2022/09/30 04:34:53;;;;;;;22.37;16.47;;;6.70;99.90;;;;;;4974325;28;20027;-77
2022/09/30 04:37:20;;;;;;;95.80;17.73;;;6.70;99.90;;;;;;4977561;28;20038;-77
2022/09/30 04:39:45;;;;;;;23.23;18.40;;;6.70;99.90;;;;;;4977901;28;20047;-77
2022/09/30 04:42:11;;;;;;;24.80;18.13;;;6.70;99.90;;;;;;4977502;28;20055;-77
2022/09/30 04:44:36;;;;;;;22.53;18.50;;;6.70;99.90;;;;;;4977732;28;20517;-77
2022/09/30 04:47:02;;;;;;;36.67;19.27;;;6.80;99.90;;;;;;4977756;28;20520;-77
2022/09/30 04:49:28;;;;;;;37.93;17.03;;;6.80;99.90;;;;;;4977551;28;20372;-77
2022/09/30 04:51:54;;;;;;;22.97;17.10;;;6.80;99.90;;;;;;4975485;28;20074;-77
2022/09/30 04:54:19;;;;;;;25.57;21.30;;;6.80;99.90;;;;;;4991700;28;20395;-76
2022/09/30 04:56:45;;;;;;;41.83;19.03;;;6.80;99.90;;;;;;4994392;28;20039;-76
2022/09/30 04:59:10;;;;;;;77.93;54.17;;;6.80;99.90;;;;;;4994392;28;20157;-77
2022/09/30 05:01:36;;;;;;;45.63;34.67;;;6.90;99.90;;;;;;5007087;28;20390;-77
2022/09/30 05:04:02;;;;;;;27.40;22.73;;;6.90;99.90;;;;;;5013962;28;20033;-76
2022/09/30 05:06:27;;;;;;;49.47;28.47;;;6.90;99.90;;;;;;5012659;28;20057;-76
2022/09/30 05:08:53;;;;;;;27.43;22.77;;;6.90;99.90;;;;;;5013687;28;20096;-76
2022/09/30 05:11:20;;;;;;;29.50;19.80;;;6.90;99.90;;;;;;5012656;28;20030;-76
2022/09/30 05:13:47;;;;;;;61.83;21.40;;;7.00;99.90;;;;;;5013759;28;20036;-77
2022/09/30 05:16:13;;;;;;;35.77;19.17;;;7.00;99.90;;;;;;5013636;28;20036;-76
2022/09/30 05:18:41;;;;;;;40.47;27.23;;;6.90;99.90;;;;;;5013501;28;20521;-76
2022/09/30 05:21:08;;;;;;;69.10;17.67;;;6.90;99.90;;;;;;5013706;28;20502;-76
2022/09/30 05:23:34;;;;;;;112.73;17.60;;;6.90;99.90;;;;;;5013559;28;20030;-76
2022/09/30 05:26:00;;;;;;;124.53;17.37;;;6.90;99.90;;;;;;5013215;28;20130;-76
2022/09/30 05:28:26;;;;;;;60.23;17.37;;;6.90;99.90;;;;;;5013450;28;20482;-76
2022/09/30 05:30:58;;;;;;;199.50;19.97;;;6.80;99.90;;;;;;5013246;28;20085;-76
2022/09/30 05:33:23;;;;;;;103.43;16.73;;;6.80;99.90;;;;;;4987945;28;20215;-76
2022/09/30 05:35:49;;;;;;;103.40;16.80;;;6.70;99.90;;;;;;4974293;28;20031;-76
2022/09/30 05:38:14;;;;;;;79.63;16.50;;;6.70;99.90;;;;;;4974058;28;20105;-81
2022/09/30 05:40:40;;;;;;;54.27;16.27;;;6.70;99.90;;;;;;4974137;28;20129;-81
2022/09/30 05:43:06;;;;;;;26.40;16.17;;;6.70;99.90;;;;;;4977091;28;20447;-81
2022/09/30 05:45:32;;;;;;;27.30;17.67;;;6.70;99.90;;;;;;4987128;28;20034;-81
2022/09/30 05:47:58;;;;;;;42.90;18.43;;;6.70;99.90;;;;;;4975288;28;20030;-81
2022/09/30 05:50:25;;;;;;;34.43;23.17;;;6.80;99.90;;;;;;4976655;28;20082;-82
2022/09/30 05:52:51;;;;;;;23.67;17.33;;;6.80;99.90;;;;;;4993326;28;20785;-82
2022/09/30 05:55:18;;;;;;;31.20;16.77;;;6.80;99.90;;;;;;4995165;28;20034;-77
2022/09/30 05:57:47;;;;;;;54.20;16.97;;;6.80;99.90;;;;;;4994428;28;20030;-77
2022/09/30 06:00:13;;;;;;;22.80;18.43;;;6.80;99.90;;;;;;4983647;28;20059;-77
2022/09/30 06:02:40;;;;;;;17.87;15.67;;;6.90;99.90;;;;;;4976105;28;20084;-77
2022/09/30 06:05:09;;;;;;;18.47;15.70;;;6.90;99.90;;;;;;4976618;28;20405;-77
2022/09/30 06:07:36;;;;;;;28.37;15.80;;;6.90;99.90;;;;;;4976106;28;20115;-77
2022/09/30 06:10:03;;;;;;;20.23;17.60;;;7.00;99.90;;;;;;4976030;28;20106;-77
2022/09/30 06:12:29;;;;;;;45.87;17.20;;;7.10;99.90;;;;;;4976060;28;20069;-73
2022/09/30 06:14:54;;;;;;;19.03;16.60;;;7.10;99.90;;;;;;4975648;28;20054;-77
2022/09/30 06:17:21;;;;;;;19.53;16.83;;;7.20;99.90;;;;;;4976882;28;20022;-77
2022/09/30 06:19:48;;;;;;;24.03;16.63;;;7.20;99.90;;;;;;4991046;28;20049;-77
2022/09/30 06:22:15;;;;;;;20.07;15.80;;;7.30;99.90;;;;;;4995335;28;20034;-77
2022/09/30 06:24:41;;;;;;;22.27;15.53;;;7.30;99.90;;;;;;4994703;28;20352;-77
2022/09/30 06:27:07;;;;;;;18.63;14.67;;;7.40;99.90;;;;;;4994869;28;20026;-77
2022/09/30 06:29:32;;;;;;;15.67;13.93;;;7.50;99.90;;;;;;5000095;28;20488;-77
2022/09/30 06:31:58;;;;;;;15.00;13.37;;;7.50;99.90;;;;;;4995196;28;20030;-77
2022/09/30 06:34:23;;;;;;;16.17;13.73;;;7.60;99.90;;;;;;4994938;28;20049;-77
2022/09/30 06:36:49;;;;;;;39.40;13.53;;;7.70;99.90;;;;;;4993990;28;20104;-77
2022/09/30 06:39:14;;;;;;;43.73;14.53;;;7.70;99.90;;;;;;4990702;28;20038;-77
2022/09/30 06:41:42;;;;;;;26.77;14.80;;;7.70;99.90;;;;;;4994729;28;20034;-77
2022/09/30 06:44:09;;;;;;;18.10;14.60;;;7.70;99.90;;;;;;4994653;28;20062;-77
2022/09/30 06:46:34;;;;;;;16.43;14.73;;;7.80;99.90;;;;;;4994842;28;20046;-77
2022/09/30 06:49:00;;;;;;;21.83;15.67;;;7.80;99.90;;;;;;4995067;28;20030;-77
2022/09/30 06:51:28;;;;;;;23.77;13.63;;;7.90;99.90;;;;;;4994750;28;20026;-77
2022/09/30 06:53:55;;;;;;;16.33;13.73;;;7.90;99.90;;;;;;4994560;28;20117;-77
2022/09/30 06:56:21;;;;;;;15.20;13.60;;;7.90;99.90;;;;;;4994569;28;20361;-77
2022/09/30 06:58:47;;;;;;;18.03;15.10;;;8.00;99.90;;;;;;4988458;28;20031;-81
2022/09/30 07:01:14;;;;;;;23.40;15.23;;;8.00;99.90;;;;;;4971515;28;20155;-81
2022/09/30 07:03:43;;;;;;;47.27;15.77;;;8.00;99.90;;;;;;4972221;28;20027;-82
2022/09/30 07:06:08;;;;;;;27.80;16.17;;;8.00;99.90;;;;;;4972305;28;20097;-82
2022/09/30 07:08:37;;;;;;;18.23;15.63;;;8.00;99.90;;;;;;4985276;28;20030;-82
2022/09/30 07:11:10;;;;;;;16.00;14.30;;;8.00;99.90;;;;;;4991518;28;20080;-82
2022/09/30 07:13:36;;;;;;;18.83;14.40;;;8.00;99.90;;;;;;4991473;28;20060;-82
2022/09/30 07:16:01;;;;;;;18.27;15.30;;;8.10;99.90;;;;;;4992102;28;20447;-77
2022/09/30 07:18:27;;;;;;;17.77;15.80;;;8.20;99.90;;;;;;4993796;28;20073;-77
2022/09/30 07:20:54;;;;;;;17.83;14.53;;;8.20;99.90;;;;;;4994374;28;20030;-77
2022/09/30 07:23:21;;;;;;;19.83;14.53;;;8.30;99.90;;;;;;4994517;28;20440;-77
2022/09/30 07:25:59;;;;;;;15.97;13.77;;;8.40;99.90;;;;;;4994477;28;20157;-77
2022/09/30 07:28:29;;;;;;;18.43;14.90;;;8.50;99.90;;;;;;4994243;28;20379;-77
2022/09/30 07:30:55;;;;;;;18.30;15.10;;;8.60;99.90;;;;;;4993682;28;20177;-77
2022/09/30 07:33:21;;;;;;;17.07;14.87;;;8.70;99.90;;;;;;4993824;28;20077;-77
2022/09/30 07:35:52;;;;;;;18.90;15.63;;;8.80;99.90;;;;;;4993765;28;20333;-77
2022/09/30 07:38:20;;;;;;;20.53;16.37;;;8.90;99.90;;;;;;4993808;28;20022;-77
2022/09/30 07:40:58;;;;;;;20.73;18.23;;;8.90;99.90;;;;;;4993619;28;20034;-77
2022/09/30 07:43:37;;;;;;;22.67;17.33;;;9.00;99.90;;;;;;4993480;28;20226;-77
2022/09/30 07:46:23;;;;;;;21.33;17.87;;;9.00;99.90;;;;;;4993535;28;20102;-77
2022/09/30 07:48:51;;;;;;;22.90;18.67;;;9.10;99.90;;;;;;4994080;28;20100;-77
2022/09/30 07:51:29;;;;;;;25.07;19.10;;;9.10;99.90;;;;;;4994129;28;20097;-77
2022/09/30 07:54:07;;;;;;;19.90;17.30;;;9.20;99.90;;;;;;4993714;28;20172;-77
2022/09/30 07:56:35;;;;;;;20.40;16.90;;;9.30;99.90;;;;;;4993661;28;20037;-72
2022/09/30 07:59:01;;;;;;;17.77;15.87;;;9.50;99.90;;;;;;4992977;28;20034;-77
2022/09/30 08:01:27;;;;;;;18.97;16.80;;;9.60;99.90;;;;;;4991382;28;20165;-77
2022/09/30 08:03:55;;;;;;;18.93;16.70;;;9.70;99.90;;;;;;4992231;28;20488;-77
2022/09/30 08:06:21;;;;;;;22.67;19.07;;;9.70;99.90;;;;;;4992593;28;20419;-77
2022/09/30 08:08:50;;;;;;;20.73;16.83;;;9.80;99.90;;;;;;4993023;28;20033;-77
2022/09/30 08:11:16;;;;;;;20.83;17.77;;;9.80;99.90;;;;;;4994574;28;20031;-74
2022/09/30 08:13:41;;;;;;;18.27;16.37;;;9.80;99.90;;;;;;4994970;28;20096;-74
2022/09/30 08:16:07;;;;;;;18.03;16.13;;;9.90;99.90;;;;;;4995143;28;20087;-74
2022/09/30 08:18:33;;;;;;;18.53;16.53;;;9.90;99.90;;;;;;4992433;28;20041;-74
2022/09/30 08:21:05;;;;;;;20.87;17.10;;;9.90;99.90;;;;;;4983655;28;20042;-80
2022/09/30 08:23:32;;;;;;;20.10;15.00;;;9.90;99.90;;;;;;4985197;28;20034;-80
2022/09/30 08:26:07;;;;;;;19.50;16.57;;;10.00;99.90;;;;;;4994481;28;20026;-81
2022/09/30 08:28:33;;;;;;;21.42;16.75;;;10.00;99.90;;;;;;4977915;28;20031;-80
2022/09/30 08:31:10;;;;;;;16.23;14.53;;;10.00;99.90;;;;;;4975049;28;20042;-80
2022/09/30 08:33:36;;;;;;;16.83;14.45;;;10.10;99.90;;;;;;4983719;28;20042;-81
2022/09/30 08:36:04;;;;;;;19.40;15.63;;;10.00;99.90;;;;;;4994307;28;20030;-81
2022/09/30 08:38:30;;;;;;;17.42;13.73;;;10.10;99.90;;;;;;4994254;28;20058;-81
2022/09/30 08:41:23;;;;;;;15.50;12.68;;;10.10;99.90;;;;;;4994301;28;20506;-81
2022/09/30 08:44:14;;;;;;;16.55;14.32;;;10.20;99.90;;;;;;4994590;28;20117;-80
2022/09/30 08:46:45;;;;;;;14.65;12.32;;;10.30;99.90;;;;;;4994080;28;20026;-80
2022/09/30 08:49:43;;;;;;;14.00;12.45;;;10.40;99.90;;;;;;4994152;28;20029;-80
2022/09/30 08:52:40;;;;;;;15.07;13.48;;;10.50;99.90;;;;;;4993842;28;20030;-80
2022/09/30 08:55:07;;;;;;;14.07;12.57;;;10.80;99.90;;;;;;4982537;28;20436;-80
2022/09/30 08:57:42;;;;;;;13.57;12.18;;;10.90;99.90;;;;;;4985995;28;20424;-80
2022/09/30 09:00:12;;;;;;;14.68;11.70;;;11.00;99.90;;;;;;4978862;28;20058;-80
2022/09/30 09:02:55;;;;;;;13.73;10.73;;;11.10;99.90;;;;;;4974944;28;20035;-80
2022/09/30 09:06:04;;;;;;;13.95;12.50;;;11.20;99.90;;;;;;4994162;28;20702;-80
2022/09/30 09:08:54;;;;;;;13.40;11.55;;;11.40;99.90;;;;;;4993938;28;20042;-80
2022/09/30 09:11:39;;;;;;;15.10;12.20;;;11.50;99.90;;;;;;4991637;28;20526;-80
2022/09/30 09:14:08;;;;;;;13.48;12.07;;;11.60;99.90;;;;;;4975216;28;20042;-79
2022/09/30 09:16:41;;;;;;;14.02;12.35;;;11.80;99.90;;;;;;4977221;28;20470;-79
2022/09/30 09:19:13;;;;;;;13.93;12.23;;;11.90;99.90;;;;;;4995291;28;21111;-79
2022/09/30 09:21:47;;;;;;;13.40;11.48;;;12.00;99.90;;;;;;4993270;28;20033;-79
2022/09/30 09:24:18;;;;;;;26.52;19.52;;;12.20;99.90;;;;;;4995655;28;20033;-79
2022/09/30 09:26:44;;;;;;;16.70;13.82;;;12.20;99.90;;;;;;4997738;28;20114;-79
2022/09/30 09:29:35;;;;;;;16.98;13.32;;;12.40;99.90;;;;;;4995472;28;20071;-79
2022/09/30 09:32:02;;;;;;;62.38;37.42;;;12.60;99.90;;;;;;4996151;28;20032;-78
2022/09/30 09:34:30;;;;;;;23.73;17.10;;;12.80;99.90;;;;;;4996977;28;20149;-79
2022/09/30 09:38:23;;;;;;;18.15;13.73;;;13.00;99.90;;;;;;4995086;28;20037;-79
2022/09/30 09:40:58;;;;;;;11.23;9.07;;;13.10;99.90;;;;;;4997951;28;20553;-79
2022/09/30 09:43:42;;;;;;;32.28;18.70;;;13.30;99.90;;;;;;4999360;28;20076;-79
2022/09/30 09:46:29;;;;;;;13.27;10.60;;;13.40;99.90;;;;;;4996703;28;20038;-79
2022/09/30 09:49:14;;;;;;;11.52;9.25;;;13.50;99.90;;;;;;4994156;28;20023;-79
2022/09/30 09:51:42;;;;;;;;;;;13.70;99.90;;;;;;4993959;28;20076;-80
2022/09/30 09:54:11;;;;;;;9.48;7.95;;;13.70;99.90;;;;;;4993096;28;19906;-82
2022/09/30 09:56:36;;;;;;;11.55;9.77;;;13.60;99.90;;;;;;4993556;28;20030;-81
2022/09/30 09:59:13;;;;;;;12.48;9.05;;;13.40;99.90;;;;;;4993009;28;20022;-81
2022/09/30 10:01:49;;;;;;;9.25;8.23;;;13.30;99.90;;;;;;5005869;28;20037;-81
2022/09/30 10:04:27;;;;;;;11.05;8.52;;;13.20;99.90;;;;;;5011192;28;20391;-81
2022/09/30 10:06:59;;;;;;;9.18;7.80;;;13.20;99.90;;;;;;5002870;28;20348;-81
2022/09/30 10:09:36;;;;;;;8.63;7.72;;;13.30;99.90;;;;;;4982467;28;20034;-81
2022/09/30 10:12:04;;;;;;;10.30;8.45;;;13.30;99.90;;;;;;4981731;28;20130;-81
2022/09/30 10:14:45;;;;;;;10.07;7.72;;;13.20;99.90;;;;;;4974816;28;20906;-81
2022/09/30 10:17:25;;;;;;;14.82;9.50;;;13.10;99.90;;;;;;4973753;28;20101;-79
2022/09/30 10:19:56;;;;;;;8.77;6.75;;;13.00;99.90;;;;;;4972467;28;20027;-79
2022/09/30 10:22:30;;;;;;;7.80;6.95;;;12.90;99.90;;;;;;4973696;28;20093;-79
2022/09/30 10:25:28;;;;;;;9.15;6.07;;;12.90;99.90;;;;;;4973673;28;20086;-79
2022/09/30 10:27:57;;;;;;;5.35;4.80;;;13.00;99.90;;;;;;4951837;28;20035;-78
2022/09/30 10:30:38;;;;;;;6.95;5.35;;;13.20;99.90;;;;;;4973215;28;20134;-79
2022/09/30 10:33:13;;;;;;;6.55;4.45;;;13.20;99.90;;;;;;4982312;28;20483;-78
2022/09/30 10:35:52;;;;;;;5.68;4.65;;;13.30;99.90;;;;;;4973753;28;20505;-79
2022/09/30 10:38:17;;;;;;;7.05;4.28;;;13.40;99.90;;;;;;4973496;28;20042;-78
2022/09/30 10:40:49;;;;;;;5.80;4.40;;;13.40;99.90;;;;;;4973714;28;20118;-79
2022/09/30 10:43:32;;;;;;;4.88;3.88;;;13.40;99.90;;;;;;4973118;28;20061;-79
2022/09/30 10:46:02;;;;;;;6.32;4.82;;;13.40;99.90;;;;;;4973083;28;20479;-81
2022/09/30 10:48:33;;;;;;;6.80;5.20;;;13.50;99.90;;;;;;4972727;28;20030;-81
2022/09/30 10:50:59;;;;;;;7.07;4.47;;;13.40;99.90;;;;;;4972658;28;20057;-81
2022/09/30 10:53:28;;;;;;;6.60;4.50;;;13.30;99.90;;;;;;4972583;28;20078;-81
2022/09/30 10:55:55;;;;;;;6.15;4.63;;;13.10;99.90;;;;;;4972567;28;20031;-81
2022/09/30 10:58:46;;;;;;;4.97;3.92;;;13.10;99.90;;;;;;4972672;28;20110;-81
2022/09/30 11:01:26;;;;;;;4.03;3.15;;;13.00;99.90;;;;;;4978135;28;20380;-81
2022/09/30 11:04:03;;;;;;;4.70;3.15;;;13.10;99.90;;;;;;4988135;28;20100;-81
2022/09/30 11:06:37;;;;;;;4.10;2.90;;;13.20;99.90;;;;;;4972270;28;20027;-81
2022/09/30 11:09:35;;;;;;;4.97;2.80;;;13.30;99.90;;;;;;4977947;28;20030;-81
2022/09/30 11:12:35;;;;;;;5.53;2.75;;;13.50;99.90;;;;;;4991879;28;20337;-81
2022/09/30 11:15:14;;;;;;;7.53;4.57;;;13.60;99.90;;;;;;4989928;28;20125;-80
2022/09/30 11:17:46;;;;;;;3.30;3.00;;;13.70;99.90;;;;;;4984982;28;20037;-80
2022/09/30 11:20:24;;;;;;;5.03;3.15;;;13.70;99.90;;;;;;4972450;28;20028;-78
2022/09/30 11:23:31;;;;;;;7.20;2.42;;;13.80;99.90;;;;;;4973820;28;20501;-79
2022/09/30 11:26:26;;;;;;;3.30;2.40;;;13.80;99.90;;;;;;4968348;28;20423;-78
2022/09/30 11:29:20;;;;;;;4.25;2.70;;;13.90;99.90;;;;;;4972555;28;20146;-79
2022/09/30 11:32:22;;;;;;;4.68;2.63;;;13.90;99.90;;;;;;4990666;28;20038;-79
2022/09/30 11:35:06;;;;;;;3.63;2.50;;;13.80;99.90;;;;;;4993859;28;20025;-78
2022/09/30 11:37:41;;;;;;;4.70;2.55;;;13.80;99.90;;;;;;4989129;28;20168;-78
2022/09/30 11:40:33;;;;;;;3.88;2.50;;;13.70;99.90;;;;;;4992855;28;20113;-78
2022/09/30 11:43:10;;;;;;;4.00;2.90;;;13.60;99.90;;;;;;4992528;28;20085;-78
2022/09/30 11:46:07;;;;;;;4.00;2.78;;;13.50;99.90;;;;;;4989904;28;20014;-78
2022/09/30 11:48:48;;;;;;;3.42;2.50;;;13.50;99.90;;;;;;4986251;28;20030;-78
2022/09/30 11:51:38;;;;;;;4.43;3.10;;;13.50;99.90;;;;;;4986321;28;21686;-81
2022/09/30 11:54:38;;;;;;;3.35;2.42;;;13.40;99.90;;;;;;4991289;28;20042;-81
2022/09/30 11:57:36;;;;;;;3.47;2.67;;;13.40;99.90;;;;;;4995906;28;20030;-78
2022/09/30 12:00:07;;;;;;;5.95;4.57;;;13.30;99.90;;;;;;4996670;28;20088;-78
2022/09/30 12:02:53;;;;;;;3.55;2.70;;;13.20;99.90;;;;;;4994781;28;20019;-81
2022/09/30 12:05:25;;;;;;;5.50;2.90;;;13.20;99.90;;;;;;4992633;28;20027;-79
2022/09/30 12:08:11;;;;;;;4.50;2.40;;;13.20;99.90;;;;;;4992408;28;20022;-79
2022/09/30 12:11:02;;;;;;;4.28;2.42;;;13.20;99.90;;;;;;4990157;28;20022;-79
2022/09/30 12:13:54;;;;;;;5.22;2.40;;;13.20;99.90;;;;;;4991711;28;20424;-79
2022/09/30 12:16:30;;;;;;;4.43;2.90;;;13.20;99.90;;;;;;4989221;28;20117;-79
2022/09/30 12:19:04;;;;;;;5.20;3.30;;;13.20;99.90;;;;;;4991992;28;20487;-79
2022/09/30 12:21:42;;;;;;;8.93;3.10;;;13.20;99.90;;;;;;4991641;28;20030;-79
2022/09/30 12:24:10;;;;;;;3.60;2.30;;;13.20;99.90;;;;;;4991686;28;20281;-79
2022/09/30 12:26:38;;;;;;;7.72;2.20;;;13.20;99.90;;;;;;4991515;28;20019;-79
2022/09/30 12:32:18;;;;;;;4.20;2.10;;;13.30;99.90;;;;;;4988269;28;20070;-79
2022/09/30 12:35:14;;;;;;;3.70;2.80;;;13.30;99.90;;;;;;4973198;28;20380;-78
2022/09/30 12:38:18;;;;;;;3.30;2.13;;;13.30;99.90;;;;;;4973608;28;20113;-78
2022/09/30 12:41:02;;;;;;;3.85;2.40;;;13.30;99.90;;;;;;4973578;28;20038;-79
2022/09/30 12:43:52;;;;;;;4.55;2.67;;;13.30;99.90;;;;;;4973379;28;20048;-78
2022/09/30 12:47:00;;;;;;;4.47;1.95;;;13.20;99.90;;;;;;4973117;28;20027;-78
2022/09/30 12:49:28;;;;;;;4.13;2.53;;;13.30;99.90;;;;;;4973469;28;20372;-79
2022/09/30 12:51:58;;;;;;;13.52;9.70;;;13.30;99.90;;;;;;4973018;28;20130;-78
2022/09/30 12:54:42;;;;;;;5.05;3.63;;;13.30;99.90;;;;;;4972933;28;20035;-78
2022/09/30 12:57:08;;;;;;;4.43;2.60;;;13.30;99.90;;;;;;4975199;28;20506;-79
2022/09/30 12:59:37;;;;;;;3.60;2.10;;;13.20;99.90;;;;;;4976356;28;20030;-78
2022/09/30 13:02:05;;;;;;;4.57;2.17;;;13.20;99.90;;;;;;4991284;28;20026;-78
2022/09/30 13:04:38;;;;;;;4.78;2.20;;;13.20;99.90;;;;;;4976222;28;20023;-78
2022/09/30 13:07:06;;;;;;;3.90;2.30;;;13.20;99.90;;;;;;4977998;28;20854;-78
2022/09/30 13:09:54;;;;;;;5.30;2.00;;;13.10;99.90;;;;;;4985260;28;20402;-78
2022/09/30 13:13:07;;;;;;;3.03;2.00;;;13.20;99.90;;;;;;4981054;28;20042;-78
2022/09/30 13:15:35;;;;;;;2.90;1.77;;;13.30;99.90;;;;;;4977681;28;20042;-78
2022/09/30 13:18:18;;;;;;;3.58;2.13;;;13.30;99.90;;;;;;4995045;28;20077;-82